createdAt,value
2023-01-25T00:01:15.338Z,68.50
2023-01-25T00:03:43.557Z,68.38
2023-01-25T00:06:11.832Z,68.38
2023-01-25T00:08:40.167Z,68.24
2023-01-25T00:11:08.159Z,68.33
2023-01-25T00:13:37.493Z,68.56
2023-01-25T00:16:05.702Z,68.45
2023-01-25T00:18:34.599Z,68.35
2023-01-25T00:21:17.106Z,68.37
2023-01-25T00:23:45.336Z,68.68
2023-01-25T00:26:13.558Z,68.55
2023-01-25T00:28:41.851Z,68.40
2023-01-25T00:31:11.989Z,68.51
2023-01-25T00:33:48.770Z,68.34
2023-01-25T00:36:38.415Z,68.47
2023-01-25T00:39:06.874Z,68.45
2023-01-25T00:41:34.885Z,68.40
2023-01-25T00:44:03.197Z,68.33
2023-01-25T00:46:31.357Z,68.12
2023-01-25T00:48:59.568Z,68.14
2023-01-25T00:51:27.734Z,68.07
2023-01-25T00:53:56.100Z,67.82
2023-01-25T00:56:27.249Z,68.06
2023-01-25T00:58:55.491Z,67.79
2023-01-25T01:01:23.492Z,67.48
2023-01-25T01:03:53.016Z,67.59
2023-01-25T01:06:21.523Z,67.65
2023-01-25T01:08:51.812Z,67.73
2023-01-25T01:11:22.617Z,67.41
2023-01-25T01:13:50.644Z,67.46
2023-01-25T01:16:18.895Z,67.52
2023-01-25T01:18:47.317Z,67.25
2023-01-25T01:21:15.649Z,67.13
2023-01-25T01:23:43.743Z,67.17
2023-01-25T01:26:13.574Z,67.14
2023-01-25T01:28:41.637Z,67.06
2023-01-25T01:31:15.304Z,67.00
2023-01-25T01:33:51.537Z,67.11
2023-01-25T01:36:20.555Z,67.05
2023-01-25T01:38:48.556Z,67.37
2023-01-25T01:41:17.428Z,67.38
2023-01-25T01:43:45.527Z,67.36
2023-01-25T01:46:29.623Z,67.37
2023-01-25T01:49:01.194Z,67.28
2023-01-25T01:51:45.812Z,67.16
2023-01-25T01:54:29.405Z,67.06
2023-01-25T01:57:00.661Z,66.93
2023-01-25T01:59:39.955Z,66.92
2023-01-25T02:02:07.958Z,67.24
2023-01-25T02:04:36.356Z,67.25
2023-01-25T02:07:12.123Z,66.85
2023-01-25T02:09:40.204Z,67.20
2023-01-25T02:12:08.394Z,67.26
2023-01-25T02:14:36.856Z,67.32
2023-01-25T02:17:04.805Z,67.08
2023-01-25T02:19:48.374Z,67.32
2023-01-25T02:22:16.701Z,67.28
2023-01-25T02:24:48.762Z,66.99
2023-01-25T02:27:17.115Z,67.27
2023-01-25T02:29:45.755Z,67.33
2023-01-25T02:32:14.079Z,67.13
2023-01-25T02:34:42.309Z,67.29
2023-01-25T02:37:14.102Z,67.05
2023-01-25T02:39:42.504Z,67.17
2023-01-25T02:42:13.192Z,67.50
2023-01-25T02:44:41.688Z,67.56
2023-01-25T02:47:09.805Z,67.66
2023-01-25T02:49:40.653Z,67.86
2023-01-25T02:52:09.350Z,67.80
2023-01-25T02:54:37.636Z,67.71
2023-01-25T02:57:08.341Z,67.52
2023-01-25T02:59:43.707Z,67.69
2023-01-25T03:02:14.140Z,67.43
2023-01-25T03:04:42.488Z,67.49
2023-01-25T03:07:10.605Z,67.35
2023-01-25T03:09:38.718Z,67.19
2023-01-25T03:12:07.253Z,67.39
2023-01-25T03:14:36.875Z,67.25
2023-01-25T03:17:04.935Z,66.97
2023-01-25T03:19:33.317Z,67.41
2023-01-25T03:22:01.291Z,67.42
2023-01-25T03:24:29.782Z,67.67
2023-01-25T03:27:18.584Z,67.30
2023-01-25T03:29:53.579Z,67.38
2023-01-25T03:32:23.806Z,67.37
2023-01-25T03:34:51.923Z,67.37
2023-01-25T03:37:20.607Z,67.48
2023-01-25T03:39:49.013Z,67.43
2023-01-25T03:42:21.543Z,67.23
2023-01-25T03:44:52.579Z,66.96
2023-01-25T03:47:20.813Z,66.63
2023-01-25T03:49:50.029Z,66.33
2023-01-25T03:52:20.009Z,66.19
2023-01-25T03:54:51.495Z,66.14
2023-01-25T03:57:20.707Z,66.00
2023-01-25T03:59:56.121Z,65.96
2023-01-25T04:02:24.170Z,65.59
2023-01-25T04:04:55.684Z,65.58
2023-01-25T04:07:23.862Z,65.13
2023-01-25T04:09:52.223Z,64.21
2023-01-25T04:12:20.600Z,64.35
2023-01-25T04:14:49.054Z,64.42
2023-01-25T04:17:22.088Z,64.23
2023-01-25T04:20:08.970Z,64.00
2023-01-25T04:22:40.345Z,63.70
2023-01-25T04:25:10.176Z,63.24
2023-01-25T04:27:42.631Z,63.14
2023-01-25T04:30:13.931Z,63.17
2023-01-25T04:32:42.653Z,63.00
2023-01-25T04:35:22.925Z,62.82
2023-01-25T04:37:55.916Z,63.21
2023-01-25T04:40:26.198Z,63.12
2023-01-25T04:42:54.206Z,63.00
2023-01-25T04:45:23.687Z,63.02
2023-01-25T04:48:04.700Z,62.85
2023-01-25T04:50:35.091Z,62.69
2023-01-25T04:53:03.809Z,62.38
2023-01-25T04:55:35.408Z,61.93
2023-01-25T04:58:04.015Z,61.59
2023-01-25T05:00:32.922Z,61.51
2023-01-25T05:03:06.012Z,61.51
2023-01-25T05:05:35.092Z,61.57
2023-01-25T05:08:06.151Z,61.30
2023-01-25T05:10:35.259Z,61.34
2023-01-25T05:13:36.528Z,61.22
2023-01-25T05:16:12.992Z,60.96
2023-01-25T05:18:48.454Z,60.95
2023-01-25T05:21:39.888Z,60.80
2023-01-25T05:24:08.799Z,60.63
2023-01-25T05:26:57.028Z,60.73
2023-01-25T05:29:25.141Z,61.07
2023-01-25T05:32:08.442Z,60.58
2023-01-25T05:34:37.304Z,60.60
2023-01-25T05:37:06.765Z,60.62
2023-01-25T05:39:36.558Z,60.35
2023-01-25T05:42:10.578Z,60.41
2023-01-25T05:44:39.055Z,60.35
2023-01-25T05:47:08.867Z,60.33
2023-01-25T05:49:37.136Z,60.17
2023-01-25T05:52:05.948Z,60.09
2023-01-25T05:54:34.929Z,60.23
2023-01-25T05:57:05.456Z,59.97
2023-01-25T05:59:35.061Z,59.93
2023-01-25T06:02:03.439Z,59.85
2023-01-25T06:04:32.228Z,60.01
2023-01-25T06:07:00.436Z,60.07
2023-01-25T08:15:41.393Z,64.56
2023-01-25T08:18:08.262Z,64.33
2023-01-25T08:20:35.591Z,64.54
2023-01-25T08:23:02.583Z,64.82
2023-01-25T08:25:29.506Z,64.92
2023-01-25T08:27:57.238Z,64.65
2023-01-25T08:30:24.623Z,64.41
2023-01-25T08:32:51.270Z,64.36
2023-01-25T08:35:19.240Z,64.57
2023-01-25T08:37:46.283Z,64.52
2023-01-25T08:40:15.924Z,64.46
2023-01-25T08:42:45.305Z,64.50
2023-01-25T08:45:12.347Z,64.67
2023-01-25T08:47:39.155Z,64.85
2023-01-25T08:50:06.681Z,64.75
2023-01-25T08:52:33.955Z,64.25
2023-01-25T08:55:01.001Z,64.19
2023-01-25T08:57:27.746Z,63.67
2023-01-25T08:59:54.448Z,63.99
2023-01-25T09:02:21.224Z,63.97
2023-01-25T09:04:48.168Z,63.80
2023-01-25T09:07:15.479Z,63.93
2023-01-25T09:09:42.262Z,63.95
2023-01-25T09:12:09.190Z,64.29
2023-01-25T09:14:39.633Z,64.32
2023-01-25T09:17:08.838Z,64.10
2023-01-25T09:19:35.387Z,64.29
2023-01-25T09:22:03.139Z,64.49
2023-01-25T09:24:30.102Z,64.82
2023-01-25T09:38:24.705Z,64.29
2023-01-25T09:41:08.861Z,63.81
2023-01-25T09:44:07.333Z,63.60
2023-01-25T09:46:49.001Z,63.87
2023-01-25T09:49:35.697Z,63.94
2023-01-25T09:52:15.945Z,63.98
2023-01-25T09:54:47.222Z,63.94
2023-01-25T09:57:25.096Z,64.15
2023-01-25T09:59:53.163Z,63.90
2023-01-25T10:02:34.732Z,63.99
2023-01-25T10:05:14.766Z,63.95
2023-01-25T10:08:14.819Z,64.10
2023-01-25T10:10:43.988Z,64.12
2023-01-25T10:13:13.363Z,64.12
2023-01-25T10:15:45.129Z,64.22
2023-01-25T10:18:31.455Z,64.27
2023-01-25T10:21:04.813Z,64.28
2023-01-25T10:24:05.065Z,64.51
2023-01-25T10:26:34.767Z,64.56
2023-01-25T10:29:04.593Z,64.66
2023-01-25T10:31:34.741Z,64.79
2023-01-25T10:34:03.446Z,64.77
2023-01-25T10:36:31.818Z,64.71
2023-01-25T10:39:01.698Z,64.64
2023-01-25T10:41:36.245Z,64.62
2023-01-25T10:44:24.554Z,64.78
2023-01-25T10:47:11.956Z,64.75
2023-01-25T10:49:41.432Z,64.40
2023-01-25T10:52:15.136Z,64.44
2023-01-25T10:54:43.524Z,64.55
2023-01-25T10:57:17.246Z,64.60
2023-01-25T10:59:46.647Z,64.16
2023-01-25T11:02:41.813Z,63.84
2023-01-25T11:05:18.231Z,63.91
2023-01-25T11:07:46.938Z,63.76
2023-01-25T11:10:35.127Z,63.46
2023-01-25T11:13:15.585Z,62.75
2023-01-25T11:15:44.957Z,62.79
2023-01-25T11:18:31.605Z,62.87
2023-01-25T11:21:23.363Z,62.83
2023-01-25T11:24:01.085Z,62.75
2023-01-25T11:26:29.482Z,62.37
2023-01-25T11:29:13.237Z,61.99
2023-01-25T11:31:42.650Z,62.09
2023-01-25T11:34:12.443Z,62.28
2023-01-25T11:37:06.619Z,62.16
2023-01-25T11:39:41.003Z,61.64
2023-01-25T11:42:12.677Z,61.70
2023-01-25T11:45:18.477Z,61.30
2023-01-25T11:48:02.299Z,60.96
2023-01-25T11:50:39.088Z,61.09
2023-01-25T11:53:29.137Z,61.24
2023-01-25T11:56:11.459Z,61.33
2023-01-25T11:58:49.131Z,61.23
2023-01-25T12:01:45.226Z,61.13
2023-01-25T12:04:34.895Z,61.21
2023-01-25T14:20:45.549Z,59.13
2023-01-25T14:23:30.261Z,59.14
2023-01-25T14:25:58.517Z,59.34
2023-01-25T14:28:26.153Z,59.29
2023-01-25T14:30:54.680Z,59.13
2023-01-25T14:33:27.007Z,58.66
2023-01-25T14:35:57.458Z,58.40
2023-01-25T14:38:26.964Z,58.74
2023-01-25T14:41:07.270Z,59.19
2023-01-25T14:43:35.591Z,59.36
2023-01-25T14:46:37.204Z,59.35
2023-01-25T14:49:24.850Z,59.02
2023-01-25T14:51:56.745Z,58.92
2023-01-25T14:54:25.299Z,58.90
2023-01-25T14:56:53.305Z,59.04
2023-01-25T14:59:41.198Z,59.01
2023-01-25T15:02:27.989Z,58.86
2023-01-25T15:05:04.868Z,58.94
2023-01-25T15:07:48.020Z,59.01
2023-01-25T15:10:22.885Z,58.55
2023-01-25T15:13:04.152Z,58.53
2023-01-25T15:15:52.385Z,58.48
2023-01-25T15:18:48.010Z,58.24
2023-01-25T15:21:25.180Z,58.09
2023-01-25T15:23:52.611Z,58.12
2023-01-25T15:26:29.024Z,58.07
2023-01-25T15:29:00.752Z,58.05
2023-01-25T15:31:29.133Z,58.26
2023-01-25T15:33:58.731Z,58.20
2023-01-25T15:36:25.874Z,58.10
2023-01-25T15:38:52.732Z,58.04
2023-01-25T15:41:22.745Z,57.86
2023-01-25T15:56:23.661Z,57.33
2023-01-25T15:58:59.833Z,57.15
2023-01-25T16:01:29.955Z,57.23
2023-01-25T16:04:14.259Z,57.16
2023-01-25T16:06:42.991Z,57.29
2023-01-25T16:09:27.245Z,57.91
2023-01-25T16:11:56.686Z,57.85
2023-01-25T16:14:29.314Z,57.96
2023-01-25T16:16:59.193Z,58.04
2023-01-25T16:19:27.216Z,57.90
2023-01-25T16:21:55.370Z,57.60
2023-01-25T16:24:23.792Z,57.62
2023-01-25T16:26:52.881Z,57.92
2023-01-25T16:29:23.126Z,58.33
2023-01-25T16:31:52.249Z,58.43
2023-01-25T16:34:21.195Z,58.55
2023-01-25T16:36:50.808Z,58.89
2023-01-25T16:39:21.677Z,58.67
2023-01-25T16:41:49.988Z,58.81
2023-01-25T16:44:18.115Z,59.22
2023-01-25T16:46:49.121Z,59.17
2023-01-25T16:49:26.681Z,59.05
2023-01-25T16:51:54.910Z,59.07
2023-01-25T16:54:23.561Z,59.09
2023-01-25T16:56:52.202Z,59.12
2023-01-25T16:59:20.914Z,58.90
2023-01-25T17:01:48.911Z,58.80
2023-01-25T17:04:17.015Z,59.11
2023-01-25T17:06:47.031Z,58.93
2023-01-25T17:09:24.968Z,58.86
2023-01-25T17:11:54.579Z,58.71
2023-01-25T17:14:23.008Z,58.47
2023-01-25T17:16:55.090Z,58.29
2023-01-25T17:19:23.607Z,58.50
2023-01-25T17:21:51.973Z,58.70
2023-01-25T17:24:21.504Z,58.75
2023-01-25T17:26:50.483Z,58.95
2023-01-25T17:29:18.377Z,59.12
2023-01-25T17:31:46.615Z,59.05
2023-01-25T17:34:16.346Z,59.25
2023-01-25T17:36:44.722Z,59.79
2023-01-25T17:39:16.803Z,60.29
2023-01-25T17:41:45.769Z,60.09
2023-01-25T17:44:14.640Z,60.21
2023-01-25T17:46:42.825Z,60.18
2023-01-25T17:49:11.865Z,60.23
2023-01-25T17:51:40.800Z,60.33
2023-01-25T17:54:10.485Z,60.62
2023-01-25T17:56:39.749Z,61.10
2023-01-25T17:59:11.817Z,61.38
2023-01-25T18:01:43.014Z,61.20
2023-01-25T18:04:13.470Z,60.92
2023-01-25T18:06:45.388Z,60.87
2023-01-25T18:09:13.549Z,60.47
2023-01-25T20:06:48.843Z,60.18
2023-01-25T20:09:16.795Z,60.00
2023-01-25T20:11:43.973Z,59.84
2023-01-25T20:14:11.668Z,59.64
2023-01-25T20:16:38.282Z,59.50
2023-01-25T20:19:06.115Z,59.35
2023-01-25T20:21:33.142Z,59.14
2023-01-25T20:24:03.141Z,59.20
2023-01-25T20:26:35.435Z,59.19
2023-01-25T20:29:02.453Z,58.74
2023-01-25T20:31:39.504Z,58.71
2023-01-25T20:34:09.305Z,58.92
2023-01-25T20:36:36.533Z,58.74
2023-01-25T20:39:03.590Z,58.75
2023-01-25T20:41:30.989Z,58.60
2023-01-25T20:44:06.437Z,58.45
2023-01-25T20:46:36.582Z,58.63
2023-01-25T20:49:04.518Z,58.58
2023-01-25T20:51:31.308Z,58.52
2023-01-25T20:53:58.063Z,58.32
2023-01-25T20:56:25.611Z,58.05
2023-01-25T20:58:52.322Z,57.92
2023-01-25T21:01:30.370Z,58.11
2023-01-25T21:03:57.477Z,58.37
2023-01-25T21:06:25.571Z,58.59
2023-01-25T21:08:52.457Z,58.97
2023-01-25T21:11:19.361Z,59.33
2023-01-25T21:13:46.903Z,59.67
2023-01-25T21:16:17.176Z,59.65
2023-01-25T21:19:04.646Z,59.54
2023-01-25T21:21:31.608Z,59.65
2023-01-25T21:24:01.710Z,59.41
2023-01-25T21:26:30.250Z,59.01
2023-01-25T21:28:57.558Z,59.02
2023-01-25T21:31:27.498Z,59.06
2023-01-25T21:33:54.510Z,59.09
2023-01-25T21:36:21.828Z,59.17
2023-01-25T21:38:49.372Z,59.14
2023-01-25T21:41:20.601Z,59.01
2023-01-25T21:44:06.593Z,58.80
2023-01-25T21:46:33.425Z,58.85
2023-01-25T21:49:20.449Z,58.91
2023-01-25T21:51:49.123Z,58.87
2023-01-25T21:54:22.130Z,58.98
2023-01-25T21:56:50.487Z,58.86
2023-01-25T21:59:17.477Z,58.87
2023-01-25T22:01:44.422Z,58.78
2023-01-25T22:04:11.704Z,58.84
2023-01-25T22:06:41.978Z,58.66
2023-01-25T22:09:08.899Z,58.77
2023-01-25T22:11:35.850Z,58.90
2023-01-25T22:14:02.660Z,58.95
2023-01-25T22:16:29.751Z,58.93
2023-01-25T22:49:14.661Z,58.50
2023-01-25T22:51:42.783Z,58.36
2023-01-25T22:54:10.767Z,58.62
2023-01-25T22:56:38.891Z,58.72
2023-01-25T22:59:08.074Z,58.50
2023-01-25T23:01:36.149Z,58.30
2023-01-25T23:04:04.161Z,58.31
2023-01-25T23:06:34.363Z,58.32
2023-01-25T23:09:05.138Z,58.47
2023-01-25T23:11:38.053Z,58.59
2023-01-25T23:14:26.287Z,58.69
2023-01-25T23:17:15.016Z,58.68
2023-01-25T23:19:43.272Z,58.49
2023-01-25T23:22:11.232Z,58.72
2023-01-25T23:24:39.482Z,58.40
2023-01-25T23:27:07.549Z,58.24
2023-01-25T23:29:35.629Z,58.22
2023-01-25T23:32:04.001Z,58.35
2023-01-25T23:34:35.751Z,58.25
2023-01-25T23:37:03.718Z,58.18
2023-01-25T23:39:32.671Z,58.14
2023-01-25T23:42:00.661Z,58.19
2023-01-25T23:44:29.265Z,58.18
2023-01-25T23:46:57.275Z,57.94
2023-01-25T23:49:25.620Z,57.84
2023-01-25T23:51:53.634Z,57.97
2023-01-25T23:54:21.652Z,57.98
2023-01-25T23:56:49.820Z,58.06
2023-01-25T23:59:17.913Z,58.14
